Time;durP1;ratioP1;P1;durP2;ratioP2;P2;SDS_P1;SDS_P2;PMS_P1;PMS_P2;Temp;Humidity;BMP_temperature;BMP_pressure;BME280_temperature;BME280_humidity;BME280_pressure;Samples;Min_cycle;Max_cycle;Signal;HPM_P1;HPM_P2
2021/04/19 00:01:53;;;;;;;61.67;36.63;;;7.20;99.90;;;;;;5022431;28;20478;-73
2021/04/19 00:04:19;;;;;;;61.40;37.67;;;7.00;99.90;;;;;;4998283;28;20034;-74
2021/04/19 00:06:44;;;;;;;69.95;38.38;;;7.00;99.90;;;;;;5025449;28;20118;-74
2021/04/19 00:09:10;;;;;;;58.78;37.38;;;6.90;99.90;;;;;;5020505;28;20033;-74
2021/04/19 00:11:36;;;;;;;76.18;38.28;;;6.90;99.90;;;;;;5029905;28;20368;-74
2021/04/19 00:14:03;;;;;;;60.47;35.90;;;6.90;99.90;;;;;;5013465;28;20026;-74
2021/04/19 00:16:29;;;;;;;56.25;35.20;;;7.00;99.90;;;;;;4996300;28;20026;-74
2021/04/19 00:18:55;;;;;;;53.55;34.00;;;7.10;99.90;;;;;;4996172;28;20034;-74
2021/04/19 00:21:20;;;;;;;55.58;34.45;;;7.20;99.90;;;;;;4978760;28;20117;-74
2021/04/19 00:23:46;;;;;;;55.58;34.78;;;7.30;99.90;;;;;;4996085;28;20019;-73
2021/04/19 00:26:11;;;;;;;50.25;33.20;;;7.30;99.90;;;;;;4978885;28;20435;-74
2021/04/19 00:28:37;;;;;;;53.85;33.40;;;7.40;99.90;;;;;;4991937;28;20415;-74
2021/04/19 00:31:02;;;;;;;54.30;34.70;;;7.40;99.90;;;;;;4992304;28;20120;-75
2021/04/19 00:33:28;;;;;;;52.92;33.40;;;7.40;99.90;;;;;;5002856;28;20033;-75
2021/04/19 00:35:53;;;;;;;49.60;31.52;;;7.40;99.90;;;;;;4998290;28;20116;-74
2021/04/19 00:38:19;;;;;;;50.13;31.80;;;7.40;99.90;;;;;;4991547;28;20023;-74
2021/04/19 00:40:45;;;;;;;58.03;34.50;;;7.40;99.90;;;;;;5008819;28;20041;-74
2021/04/19 00:43:11;;;;;;;62.65;36.15;;;7.40;99.90;;;;;;5002454;28;20022;-74
2021/04/19 00:45:37;;;;;;;64.97;36.60;;;7.30;99.90;;;;;;5002238;28;20077;-74
2021/04/19 00:48:04;;;;;;;59.88;37.03;;;7.20;99.90;;;;;;4991413;28;20034;-73
2021/04/19 00:50:32;;;;;;;70.45;37.33;;;7.20;99.90;;;;;;5008898;28;20022;-74
2021/04/19 00:53:04;;;;;;;72.85;39.05;;;7.20;99.90;;;;;;5002475;28;20033;-74
2021/04/19 00:55:30;;;;;;;65.75;37.92;;;7.20;99.90;;;;;;4983366;28;20468;-73
2021/04/19 00:57:55;;;;;;;61.47;36.20;;;7.10;99.90;;;;;;5003270;28;20079;-74
2021/04/19 01:00:29;;;;;;;62.03;35.70;;;7.10;99.90;;;;;;5002095;28;20454;-73
2021/04/19 01:02:54;;;;;;;57.22;35.42;;;7.20;99.90;;;;;;5006766;28;20030;-73
2021/04/19 01:05:27;;;;;;;65.45;36.78;;;7.20;99.90;;;;;;4995147;28;20034;-74
2021/04/19 01:07:52;;;;;;;57.17;35.30;;;7.20;99.90;;;;;;4995616;28;20026;-75
2021/04/19 01:10:18;;;;;;;122.18;44.50;;;7.20;99.90;;;;;;4998022;28;20053;-73
2021/04/19 01:12:44;;;;;;;57.88;34.97;;;7.10;99.90;;;;;;5015140;28;20034;-75
2021/04/19 01:15:10;;;;;;;57.08;33.80;;;7.10;99.90;;;;;;4996998;28;20447;-75
2021/04/19 01:17:35;;;;;;;63.38;35.85;;;7.00;99.90;;;;;;5014776;28;20031;-75
2021/04/19 01:20:04;;;;;;;60.15;35.05;;;7.10;99.90;;;;;;4993672;28;20490;-75
2021/04/19 01:22:29;;;;;;;60.78;34.15;;;7.10;99.90;;;;;;4995008;28;20022;-75
2021/04/19 01:24:55;;;;;;;64.70;35.90;;;7.00;99.90;;;;;;4994855;28;20037;-73
2021/04/19 01:27:20;;;;;;;74.00;37.15;;;6.90;99.90;;;;;;4995123;28;20518;-73
2021/04/19 01:29:46;;;;;;;63.00;35.85;;;6.90;99.90;;;;;;4977517;28;20030;-73
2021/04/19 01:32:12;;;;;;;64.43;36.90;;;6.80;99.90;;;;;;4994916;28;20038;-74
2021/04/19 01:34:38;;;;;;;57.60;35.13;;;6.90;99.90;;;;;;4990207;28;20050;-73
2021/04/19 01:37:03;;;;;;;66.93;37.78;;;6.80;99.90;;;;;;4977548;28;20140;-73
2021/04/19 01:39:29;;;;;;;64.65;36.35;;;6.80;99.90;;;;;;4994730;28;20599;-73
2021/04/19 01:41:54;;;;;;;69.53;36.90;;;6.80;99.90;;;;;;4977486;28;20030;-73
2021/04/19 01:44:20;;;;;;;75.60;39.05;;;6.80;99.90;;;;;;4997713;28;20025;-73
2021/04/19 01:46:46;;;;;;;101.57;42.88;;;6.80;99.90;;;;;;5004875;28;20476;-73
2021/04/19 01:49:18;;;;;;;96.72;40.47;;;6.80;99.90;;;;;;5007535;28;20492;-73
2021/04/19 01:51:44;;;;;;;75.18;38.20;;;6.80;99.90;;;;;;5005201;28;20053;-72
2021/04/19 01:54:10;;;;;;;96.22;42.75;;;6.80;99.90;;;;;;5000852;28;20059;-73
2021/04/19 01:56:36;;;;;;;99.32;42.72;;;6.70;99.90;;;;;;5003671;28;20038;-74
2021/04/19 01:59:03;;;;;;;105.88;44.53;;;6.70;99.90;;;;;;5007540;28;20082;-73
2021/04/19 02:01:29;;;;;;;107.53;46.80;;;6.70;99.90;;;;;;5004919;28;20104;-73
2021/04/19 02:04:11;;;;;;;67.65;37.97;;;6.70;99.90;;;;;;4996811;28;20026;-73
2021/04/19 02:06:42;;;;;;;70.13;39.53;;;6.60;99.90;;;;;;4989488;28;20049;-74
2021/04/19 02:09:25;;;;;;;67.75;37.70;;;6.70;99.90;;;;;;4996349;28;20025;-74
2021/04/19 02:12:19;;;;;;;70.15;37.40;;;6.80;99.90;;;;;;5013763;28;20041;-72
2021/04/19 02:14:56;;;;;;;60.53;35.53;;;6.80;99.90;;;;;;5013590;28;20044;-73
2021/04/19 02:17:48;;;;;;;59.17;34.80;;;6.80;99.90;;;;;;5013705;28;20051;-73
2021/04/19 02:20:37;;;;;;;61.08;34.17;;;6.90;99.90;;;;;;5013528;28;20026;-72
2021/04/19 02:23:15;;;;;;;55.58;32.03;;;6.90;99.90;;;;;;5013587;28;20026;-72
2021/04/19 02:25:42;;;;;;;52.50;32.47;;;6.90;99.90;;;;;;4986497;28;20029;-73
2021/04/19 02:28:14;;;;;;;55.38;32.75;;;6.90;99.90;;;;;;5006994;28;20030;-73
2021/04/19 02:30:45;;;;;;;55.45;31.38;;;6.90;99.90;;;;;;4994259;28;20057;-74
2021/04/19 02:33:14;;;;;;;52.50;31.05;;;7.00;99.90;;;;;;4980638;28;20428;-74
2021/04/19 02:35:41;;;;;;;51.00;30.15;;;6.90;99.90;;;;;;5001573;28;20033;-73
2021/04/19 02:38:10;;;;;;;52.20;30.63;;;6.90;99.90;;;;;;5006996;28;20022;-73
2021/04/19 02:40:37;;;;;;;54.08;31.30;;;6.90;99.90;;;;;;4987823;28;20083;-73
2021/04/19 02:43:04;;;;;;;48.78;29.88;;;7.00;99.90;;;;;;5000045;28;20025;-74
2021/04/19 02:45:30;;;;;;;51.40;30.52;;;7.00;99.90;;;;;;5001087;28;20027;-73
2021/04/19 02:47:56;;;;;;;51.30;30.77;;;7.00;99.90;;;;;;5006756;28;20073;-74
2021/04/19 02:50:26;;;;;;;48.38;30.23;;;6.90;99.90;;;;;;4987907;28;20026;-73
2021/04/19 02:52:53;;;;;;;50.72;30.75;;;6.90;99.90;;;;;;5013084;28;20061;-72
2021/04/19 02:55:22;;;;;;;50.65;28.90;;;6.80;99.90;;;;;;5013537;28;20060;-74
2021/04/19 02:57:54;;;;;;;49.40;29.83;;;7.00;99.90;;;;;;4983739;28;20021;-74
2021/04/19 03:00:26;;;;;;;52.50;31.42;;;6.90;99.90;;;;;;5000823;28;20491;-73
2021/04/19 03:02:54;;;;;;;63.67;32.75;;;7.00;99.90;;;;;;4995680;28;20027;-74
2021/04/19 03:05:19;;;;;;;54.42;29.83;;;7.00;99.90;;;;;;4994566;28;20025;-73
2021/04/19 03:07:50;;;;;;;59.50;31.30;;;6.90;99.90;;;;;;4994702;28;20022;-74
2021/04/19 03:10:18;;;;;;;57.72;31.92;;;6.90;99.90;;;;;;4994935;28;20023;-74
2021/04/19 03:12:50;;;;;;;57.55;30.45;;;7.00;99.90;;;;;;5004660;28;20030;-75
2021/04/19 03:15:23;;;;;;;53.50;30.60;;;6.80;99.90;;;;;;4975613;28;20026;-73
2021/04/19 03:17:50;;;;;;;67.97;32.15;;;6.90;99.90;;;;;;5002785;28;20499;-73
2021/04/19 03:20:21;;;;;;;64.45;32.85;;;6.90;99.90;;;;;;4996184;28;20531;-73
2021/04/19 03:22:49;;;;;;;69.80;33.75;;;6.90;99.90;;;;;;4986322;28;20495;-73
2021/04/19 03:25:15;;;;;;;68.50;32.63;;;6.90;99.90;;;;;;5008215;28;20318;-74
2021/04/19 03:27:43;;;;;;;61.55;31.98;;;7.00;99.90;;;;;;5004941;28;20026;-73
2021/04/19 03:30:11;;;;;;;74.00;34.55;;;6.90;99.90;;;;;;4994682;28;20112;-74
2021/04/19 03:32:41;;;;;;;56.28;30.77;;;6.80;99.90;;;;;;5000888;28;20077;-74
2021/04/19 03:35:10;;;;;;;54.75;30.42;;;6.80;99.90;;;;;;5011514;28;20045;-74
2021/04/19 03:37:39;;;;;;;53.95;30.58;;;6.90;99.90;;;;;;4994921;28;20663;-74
2021/04/19 03:40:09;;;;;;;51.15;28.90;;;7.00;99.90;;;;;;5013749;23;20050;-74
2021/04/19 03:42:38;;;;;;;64.20;32.58;;;7.00;99.90;;;;;;5047015;28;20070;-73
2021/04/19 03:45:07;;;;;;;63.22;31.95;;;6.90;99.90;;;;;;5051441;28;20025;-76
2021/04/19 03:47:35;;;;;;;52.47;30.65;;;6.80;99.90;;;;;;5051541;28;20371;-73
2021/04/19 03:50:03;;;;;;;50.50;30.02;;;6.70;99.90;;;;;;5033620;28;20063;-73
2021/04/19 03:52:42;;;;;;;51.28;30.15;;;6.80;99.90;;;;;;5051437;28;20407;-73
2021/04/19 03:55:11;;;;;;;53.50;29.73;;;6.90;99.90;;;;;;5033603;28;20029;-73
2021/04/19 03:57:41;;;;;;;45.60;28.25;;;7.00;99.90;;;;;;5033568;28;20128;-73
2021/04/19 04:00:11;;;;;;;51.58;29.90;;;6.90;99.90;;;;;;5051413;28;20478;-72
2021/04/19 04:02:41;;;;;;;45.88;26.92;;;6.90;99.90;;;;;;5051333;28;20033;-73
2021/04/19 04:05:08;;;;;;;45.05;26.63;;;6.90;99.90;;;;;;5033397;28;20021;-73
2021/04/19 04:07:34;;;;;;;47.38;28.60;;;6.90;99.90;;;;;;5051585;28;20035;-73
2021/04/19 04:10:02;;;;;;;44.83;26.50;;;7.00;99.90;;;;;;5051661;28;20029;-73
2021/04/19 04:12:28;;;;;;;44.22;26.10;;;6.90;99.90;;;;;;5033660;28;20048;-73
2021/04/19 04:14:55;;;;;;;45.47;26.35;;;6.90;99.90;;;;;;5051026;28;20506;-73
2021/04/19 04:17:21;;;;;;;47.53;27.58;;;6.90;99.90;;;;;;5033596;28;20036;-75
2021/04/19 04:19:46;;;;;;;41.05;24.98;;;7.00;99.90;;;;;;5051137;28;20417;-74
2021/04/19 04:22:14;;;;;;;41.00;25.50;;;7.00;99.90;;;;;;5033474;28;20486;-73
2021/04/19 04:24:40;;;;;;;48.20;26.85;;;7.00;99.90;;;;;;5036640;28;20022;-74
2021/04/19 04:27:07;;;;;;;51.63;28.70;;;7.00;99.90;;;;;;5031315;28;20021;-74
2021/04/19 04:29:33;;;;;;;59.83;30.90;;;6.70;99.90;;;;;;5044762;28;20017;-73
2021/04/19 04:31:59;;;;;;;94.85;36.65;;;6.70;99.90;;;;;;5039780;28;20028;-74
2021/04/19 04:34:24;;;;;;;58.10;31.45;;;6.50;99.90;;;;;;5020071;28;20033;-74
2021/04/19 04:36:50;;;;;;;60.15;33.10;;;6.60;99.90;;;;;;5025765;28;20076;-73
2021/04/19 04:39:16;;;;;;;56.60;32.78;;;6.70;99.90;;;;;;5026802;28;20025;-73
2021/04/19 04:41:41;;;;;;;68.78;34.63;;;6.80;99.90;;;;;;5021402;28;20039;-74
2021/04/19 04:44:24;;;;;;;88.85;36.85;;;6.80;99.90;;;;;;5037671;28;20384;-73
2021/04/19 04:46:52;;;;;;;78.22;36.70;;;6.90;99.90;;;;;;5023648;28;20025;-71
2021/04/19 04:49:25;;;;;;;59.35;33.22;;;6.90;99.90;;;;;;5047970;28;20025;-71
2021/04/19 04:51:53;;;;;;;59.38;33.30;;;6.90;99.90;;;;;;5040277;28;20092;-72
2021/04/19 04:54:20;;;;;;;61.08;32.97;;;6.90;99.90;;;;;;5044597;28;20021;-72
2021/04/19 04:56:51;;;;;;;66.60;34.55;;;7.00;99.90;;;;;;5027384;28;20037;-72
2021/04/19 04:59:19;;;;;;;63.35;34.67;;;6.90;99.90;;;;;;5049846;28;20112;-73
2021/04/19 05:01:46;;;;;;;58.50;33.53;;;7.00;99.90;;;;;;5046571;28;20028;-74
2021/04/19 05:04:12;;;;;;;54.38;32.17;;;7.00;99.90;;;;;;5023427;28;20021;-73
2021/04/19 05:06:38;;;;;;;60.20;33.47;;;7.10;99.90;;;;;;5025346;28;20033;-73
2021/04/19 05:09:09;;;;;;;62.10;34.05;;;7.10;99.90;;;;;;5035031;28;20025;-73
2021/04/19 05:11:35;;;;;;;78.57;36.35;;;7.10;99.90;;;;;;5025062;28;20091;-74
2021/04/19 05:14:01;;;;;;;64.97;34.00;;;7.10;99.90;;;;;;5019246;28;20061;-74
2021/04/19 05:16:28;;;;;;;74.65;35.80;;;7.00;99.90;;;;;;5026139;28;20036;-73
2021/04/19 05:18:55;;;;;;;75.03;36.50;;;6.90;99.90;;;;;;5036239;28;20095;-74
2021/04/19 05:21:20;;;;;;;101.80;39.08;;;6.90;99.90;;;;;;5031059;28;20079;-74
2021/04/19 05:23:46;;;;;;;105.40;37.60;;;6.60;99.90;;;;;;5036866;28;20029;-74
2021/04/19 05:26:11;;;;;;;73.35;34.35;;;6.50;99.90;;;;;;5016667;28;20025;-74
2021/04/19 05:28:41;;;;;;;104.75;40.88;;;6.60;99.90;;;;;;5016638;28;20030;-73
2021/04/19 05:31:11;;;;;;;81.05;36.47;;;6.70;99.90;;;;;;5034422;28;20719;-73
2021/04/19 05:33:36;;;;;;;79.40;37.15;;;6.70;99.90;;;;;;5029998;28;20487;-73
2021/04/19 05:36:28;;;;;;;59.35;31.77;;;6.70;99.90;;;;;;5035985;28;20028;-73
2021/04/19 05:38:55;;;;;;;61.90;31.50;;;6.70;99.90;;;;;;5040424;28;20124;-73
2021/04/19 05:41:22;;;;;;;65.60;32.78;;;6.80;99.90;;;;;;5030079;28;20043;-73
2021/04/19 05:43:49;;;;;;;68.70;35.22;;;6.90;99.90;;;;;;5028755;28;20048;-72
2021/04/19 05:46:16;;;;;;;72.85;35.83;;;6.90;99.90;;;;;;5041191;28;20062;-72
2021/04/19 05:48:42;;;;;;;70.93;37.00;;;6.90;99.90;;;;;;5041673;28;20082;-73
2021/04/19 05:51:26;;;;;;;68.15;36.65;;;6.80;99.90;;;;;;5034882;28;20501;-73
2021/04/19 05:53:54;;;;;;;80.18;36.85;;;6.80;99.90;;;;;;5048084;28;20036;-73
2021/04/19 05:56:45;;;;;;;72.65;40.47;;;6.90;99.90;;;;;;5017177;28;20029;-73
2021/04/19 05:59:12;;;;;;;67.72;35.65;;;7.10;99.90;;;;;;5030106;28;20032;-72
2021/04/19 06:01:41;;;;;;;62.72;35.85;;;7.00;99.90;;;;;;5046691;28;20119;-75
2021/04/19 06:04:20;;;;;;;65.22;33.10;;;7.10;99.90;;;;;;5035189;28;20515;-72
2021/04/19 06:07:13;;;;;;;57.35;31.52;;;7.20;99.90;;;;;;5033693;28;20085;-72
2021/04/19 06:10:06;;;;;;;60.90;32.55;;;7.30;99.90;;;;;;5045986;28;20029;-72
2021/04/19 06:12:35;;;;;;;54.40;29.83;;;7.20;99.90;;;;;;5022746;28;20025;-74
2021/04/19 06:15:08;;;;;;;53.78;30.10;;;7.20;99.90;;;;;;5033417;28;20033;-74
2021/04/19 06:17:35;;;;;;;47.85;27.63;;;7.10;99.90;;;;;;5033574;28;20116;-73
2021/04/19 06:20:01;;;;;;;51.75;28.48;;;7.10;99.90;;;;;;5046525;28;20030;-73
2021/04/19 06:22:27;;;;;;;44.33;26.20;;;7.20;99.90;;;;;;5043596;28;20040;-75
2021/04/19 06:24:53;;;;;;;45.70;26.25;;;7.30;99.90;;;;;;5052373;28;20059;-74
2021/04/19 06:27:25;;;;;;;40.40;25.50;;;7.40;99.90;;;;;;5052742;28;20049;-74
2021/04/19 06:29:52;;;;;;;40.72;24.88;;;7.50;99.90;;;;;;5053095;28;20073;-74
2021/04/19 06:32:21;;;;;;;43.75;27.65;;;7.50;99.90;;;;;;5053086;28;20029;-74
2021/04/19 06:34:47;;;;;;;44.83;26.48;;;7.50;99.90;;;;;;5030438;28;20025;-74
2021/04/19 06:37:13;;;;;;;39.72;24.40;;;7.50;99.90;;;;;;5033499;28;20079;-74
2021/04/19 06:39:38;;;;;;;38.35;23.88;;;7.60;99.90;;;;;;5046490;28;20037;-72
2021/04/19 06:42:05;;;;;;;40.38;25.55;;;7.60;99.90;;;;;;5033106;28;20022;-73
2021/04/19 06:44:30;;;;;;;39.10;25.20;;;7.60;99.90;;;;;;5046560;28;20033;-74
2021/04/19 06:46:58;;;;;;;38.35;24.65;;;7.70;99.90;;;;;;5026081;28;20021;-73
2021/04/19 06:49:25;;;;;;;42.20;26.25;;;7.80;99.90;;;;;;5021740;28;20029;-73
2021/04/19 06:51:53;;;;;;;39.63;25.23;;;7.70;99.90;;;;;;5023698;28;20048;-73
2021/04/19 06:54:19;;;;;;;41.70;24.52;;;7.70;99.90;;;;;;5046287;28;20021;-73
2021/04/19 06:56:46;;;;;;;38.78;24.48;;;7.80;99.90;;;;;;5044146;28;20554;-73
2021/04/19 06:59:19;;;;;;;40.80;24.55;;;7.80;99.90;;;;;;5021459;28;20044;-72
2021/04/19 07:01:49;;;;;;;40.83;26.33;;;7.80;99.90;;;;;;5022170;28;20021;-73
2021/04/19 07:04:19;;;;;;;38.30;26.88;;;7.90;99.90;;;;;;5045635;28;20482;-72
2021/04/19 07:06:46;;;;;;;43.28;28.45;;;7.70;99.90;;;;;;5028281;28;20029;-72
2021/04/19 07:09:27;;;;;;;44.85;28.92;;;7.80;99.90;;;;;;5039811;28;20033;-73
2021/04/19 07:11:55;;;;;;;46.60;27.98;;;7.80;99.90;;;;;;5019301;28;20033;-73
2021/04/19 07:14:21;;;;;;;39.97;25.83;;;7.70;99.90;;;;;;5041718;28;20025;-74
2021/04/19 07:16:48;;;;;;;38.90;26.13;;;7.70;99.90;;;;;;5036904;28;20029;-74
2021/04/19 07:19:14;;;;;;;42.67;27.67;;;7.90;99.90;;;;;;5014569;28;20369;-74
2021/04/19 07:21:40;;;;;;;37.15;25.65;;;8.00;99.90;;;;;;5028008;28;20037;-74
2021/04/19 07:24:06;;;;;;;43.80;27.02;;;7.90;99.90;;;;;;5041705;28;20028;-73
2021/04/19 07:26:32;;;;;;;40.20;26.83;;;8.00;99.90;;;;;;5021245;28;20474;-74
2021/04/19 07:28:58;;;;;;;39.03;25.27;;;8.10;99.90;;;;;;5042261;28;20075;-73
2021/04/19 07:31:24;;;;;;;40.30;24.92;;;8.30;99.90;;;;;;5045636;28;20030;-74
2021/04/19 07:33:49;;;;;;;38.08;23.85;;;8.30;99.90;;;;;;5041968;28;20083;-74
2021/04/19 07:36:29;;;;;;;39.50;24.73;;;8.30;99.90;;;;;;5038775;28;20021;-74
2021/04/19 07:38:58;;;;;;;38.92;24.98;;;8.30;99.90;;;;;;5022232;28;20057;-74
2021/04/19 07:41:48;;;;;;;40.92;25.10;;;8.40;99.90;;;;;;5045414;28;20044;-74
2021/04/19 07:44:46;;;;;;;43.75;25.70;;;8.50;99.90;;;;;;5045246;28;20078;-74
2021/04/19 07:47:24;;;;;;;38.67;24.15;;;8.60;99.90;;;;;;5044894;28;20032;-74
2021/04/19 07:50:18;;;;;;;38.35;24.38;;;8.70;99.90;;;;;;5002004;28;20029;-75
2021/04/19 07:52:54;;;;;;;36.97;24.00;;;8.60;99.90;;;;;;5031848;28;20044;-75
2021/04/19 07:55:26;;;;;;;;;;;8.80;99.90;;;;;;5014433;28;20112;-71
2021/04/19 07:57:51;;;;;;;41.50;24.85;;;8.80;99.90;;;;;;5031600;28;19905;-71
2021/04/19 08:00:25;;;;;;;39.05;24.48;;;8.60;99.90;;;;;;5031682;28;20025;-73
2021/04/19 08:03:07;;;;;;;39.97;24.65;;;8.50;99.90;;;;;;5031771;28;20053;-74
2021/04/19 08:05:35;;;;;;;36.30;23.70;;;8.50;99.90;;;;;;5031550;28;20101;-74
2021/04/19 08:08:01;;;;;;;38.00;24.95;;;8.50;99.90;;;;;;5014079;28;20022;-73
2021/04/19 08:10:29;;;;;;;38.95;23.48;;;8.60;99.90;;;;;;5031410;28;20479;-73
2021/04/19 08:13:06;;;;;;;34.03;22.75;;;8.60;99.90;;;;;;5031577;28;20037;-74
2021/04/19 08:15:32;;;;;;;37.75;25.05;;;8.80;99.90;;;;;;5031411;28;20475;-74
2021/04/19 08:18:07;;;;;;;37.97;24.67;;;8.80;99.90;;;;;;5013819;28;20025;-74
2021/04/19 08:20:33;;;;;;;38.28;24.17;;;8.80;99.90;;;;;;5016930;28;20061;-73
2021/04/19 08:23:07;;;;;;;37.83;24.48;;;8.90;99.90;;;;;;5031675;28;20036;-72
2021/04/19 08:25:41;;;;;;;37.13;24.73;;;8.70;99.90;;;;;;5026147;28;20017;-72
2021/04/19 08:28:16;;;;;;;37.78;24.30;;;8.70;99.90;;;;;;5038259;28;20026;-72
2021/04/19 08:30:44;;;;;;;37.25;24.35;;;8.70;99.90;;;;;;5042990;28;20104;-72
2021/04/19 08:33:10;;;;;;;38.95;24.92;;;8.80;99.90;;;;;;5048715;28;20516;-73
2021/04/19 08:35:36;;;;;;;44.53;25.85;;;8.80;99.90;;;;;;5017568;28;20049;-73
2021/04/19 08:38:04;;;;;;;40.60;24.98;;;8.80;99.90;;;;;;5035348;28;20356;-73
2021/04/19 08:40:32;;;;;;;39.50;25.02;;;8.80;99.90;;;;;;5055073;28;20502;-74
2021/04/19 08:42:58;;;;;;;37.72;24.92;;;8.80;99.90;;;;;;5036935;28;20101;-73
2021/04/19 08:45:25;;;;;;;40.38;25.05;;;8.80;99.90;;;;;;5035175;28;20338;-71
2021/04/19 08:47:52;;;;;;;42.60;26.15;;;8.90;99.90;;;;;;5040278;28;20138;-74
2021/04/19 08:50:22;;;;;;;40.88;25.73;;;8.80;99.90;;;;;;5043904;28;20029;-75
2021/04/19 08:52:49;;;;;;;46.40;25.67;;;8.70;99.90;;;;;;5035625;28;20025;-75
2021/04/19 08:55:15;;;;;;;39.33;26.00;;;8.60;99.90;;;;;;5012861;28;20030;-75
2021/04/19 08:57:43;;;;;;;41.15;26.05;;;8.60;99.90;;;;;;5047728;28;20084;-75
2021/04/19 09:00:10;;;;;;;39.97;25.08;;;8.60;99.90;;;;;;5029379;28;20391;-74
2021/04/19 09:02:36;;;;;;;41.85;26.25;;;8.50;99.90;;;;;;5023873;28;20017;-74
2021/04/19 09:05:16;;;;;;;41.40;25.38;;;8.70;99.90;;;;;;5042254;28;20032;-73
2021/04/19 09:07:45;;;;;;;39.58;25.63;;;8.60;99.90;;;;;;5030366;28;20024;-74
2021/04/19 09:10:20;;;;;;;41.83;27.10;;;8.60;99.90;;;;;;5041448;28;20018;-72
2021/04/19 09:12:46;;;;;;;43.45;27.27;;;8.60;99.90;;;;;;5045458;28;20036;-73
2021/04/19 09:15:14;;;;;;;45.40;28.23;;;8.70;99.90;;;;;;5030081;28;20096;-73
2021/04/19 09:17:40;;;;;;;48.05;28.15;;;8.80;99.90;;;;;;5044377;28;20028;-74
2021/04/19 09:20:12;;;;;;;46.15;28.60;;;8.80;99.90;;;;;;5041019;28;20025;-73
2021/04/19 09:22:38;;;;;;;43.90;26.85;;;8.80;99.90;;;;;;5044029;28;20106;-74
2021/04/19 09:25:09;;;;;;;47.63;28.05;;;8.80;99.90;;;;;;5033722;28;20025;-72
2021/04/19 09:27:44;;;;;;;42.90;26.38;;;8.80;99.90;;;;;;5054433;28;20669;-71
2021/04/19 09:30:27;;;;;;;42.47;26.65;;;8.80;99.90;;;;;;5034961;28;20052;-72
2021/04/19 09:33:02;;;;;;;40.88;26.58;;;8.90;99.90;;;;;;5036386;28;20025;-72
2021/04/19 09:35:45;;;;;;;40.97;26.13;;;9.00;99.90;;;;;;5054205;28;20031;-72
2021/04/19 09:38:13;;;;;;;41.00;26.10;;;9.00;99.90;;;;;;5040856;28;20105;-72
2021/04/19 09:40:51;;;;;;;41.92;26.05;;;9.00;99.90;;;;;;5051379;23;20046;-73
2021/04/19 09:43:52;;;;;;;44.05;25.63;;;9.10;99.90;;;;;;5048765;28;20027;-72
2021/04/19 09:46:18;;;;;;;41.13;25.23;;;9.10;99.90;;;;;;5060797;28;20040;-73
2021/04/19 09:48:45;;;;;;;44.13;25.63;;;9.30;99.90;;;;;;5062098;28;20053;-71
2021/04/19 09:51:18;;;;;;;41.25;26.23;;;9.40;99.90;;;;;;5053989;28;20443;-71
2021/04/19 09:54:00;;;;;;;39.53;24.75;;;9.30;99.90;;;;;;5053867;28;20024;-71
2021/04/19 09:56:53;;;;;;;39.50;25.67;;;9.30;99.90;;;;;;5026604;28;20029;-72
2021/04/19 09:59:22;;;;;;;42.03;26.17;;;9.50;99.90;;;;;;5033063;28;20399;-72
2021/04/19 10:01:50;;;;;;;38.00;25.23;;;9.70;99.90;;;;;;5038551;28;20386;-71
2021/04/19 10:04:17;;;;;;;39.60;25.17;;;9.50;99.90;;;;;;5035064;28;20014;-73
2021/04/19 10:06:46;;;;;;;37.63;24.50;;;9.40;99.90;;;;;;5041722;28;20483;-72
2021/04/19 10:09:14;;;;;;;40.53;24.02;;;9.40;99.90;;;;;;5022489;28;20045;-72
2021/04/19 10:11:42;;;;;;;40.67;25.02;;;9.30;99.90;;;;;;5034042;28;20021;-72
2021/04/19 10:14:13;;;;;;;36.65;23.85;;;9.30;99.90;;;;;;5036527;28;20014;-72
2021/04/19 10:16:45;;;;;;;37.38;24.95;;;9.40;99.90;;;;;;5031596;28;20021;-74
2021/04/19 10:19:11;;;;;;;38.83;24.77;;;9.40;99.90;;;;;;5047682;28;20025;-72
2021/04/19 10:21:38;;;;;;;39.33;24.10;;;9.40;99.90;;;;;;5045283;28;20021;-72
2021/04/19 10:24:11;;;;;;;34.47;23.15;;;9.60;99.90;;;;;;5031692;28;20059;-72
2021/04/19 10:26:39;;;;;;;36.05;23.38;;;9.60;99.90;;;;;;5030736;28;20084;-72
2021/04/19 10:29:09;;;;;;;36.00;23.25;;;9.60;99.90;;;;;;5034805;28;20517;-74
2021/04/19 10:31:35;;;;;;;32.80;21.63;;;9.70;99.90;;;;;;5030053;28;20025;-71
2021/04/19 10:34:10;;;;;;;35.85;22.35;;;9.80;99.90;;;;;;5036814;28;20543;-72
2021/04/19 10:36:46;;;;;;;32.42;22.50;;;9.80;99.90;;;;;;5034642;28;20498;-72
2021/04/19 10:39:17;;;;;;;34.17;22.65;;;9.90;99.90;;;;;;5032555;28;20036;-72
2021/04/19 10:41:43;;;;;;;31.88;20.85;;;9.90;99.90;;;;;;5034358;28;20051;-72
2021/04/19 10:44:09;;;;;;;32.17;21.27;;;9.80;99.90;;;;;;5038739;28;20013;-73
2021/04/19 10:46:40;;;;;;;34.03;22.25;;;9.80;99.90;;;;;;5033710;28;20524;-73
2021/04/19 10:49:07;;;;;;;36.72;22.27;;;9.80;99.90;;;;;;5036362;28;20032;-72
2021/04/19 10:51:38;;;;;;;34.53;23.85;;;9.60;99.90;;;;;;5027873;28;20049;-72
2021/04/19 10:54:06;;;;;;;34.92;22.23;;;9.60;99.90;;;;;;5031729;28;20455;-72
2021/04/19 10:56:33;;;;;;;33.70;22.42;;;9.60;99.90;;;;;;5032905;28;20022;-72
2021/04/19 10:59:10;;;;;;;39.55;23.88;;;9.60;99.90;;;;;;5035272;28;20022;-72
2021/04/19 11:01:42;;;;;;;35.85;23.98;;;9.60;99.90;;;;;;5032279;28;20087;-72
2021/04/19 11:04:10;;;;;;;36.15;23.73;;;9.60;99.90;;;;;;5039091;28;20021;-72
2021/04/19 11:06:37;;;;;;;35.85;24.73;;;9.60;99.90;;;;;;5044858;28;20029;-72
2021/04/19 11:09:15;;;;;;;33.55;22.63;;;9.60;99.90;;;;;;5042004;28;20028;-73
2021/04/19 11:11:43;;;;;;;35.42;22.35;;;9.60;99.90;;;;;;5038989;28;20034;-72
2021/04/19 11:14:23;;;;;;;33.50;22.48;;;9.70;99.90;;;;;;5043276;28;20048;-72
2021/04/19 11:17:09;;;;;;;35.67;22.02;;;9.70;99.90;;;;;;5041354;28;20379;-71
2021/04/19 11:19:45;;;;;;;33.55;22.15;;;9.80;99.90;;;;;;5031354;28;20033;-73
2021/04/19 11:22:34;;;;;;;34.63;22.20;;;9.90;99.90;;;;;;5036331;28;20378;-74
2021/04/19 11:25:27;;;;;;;33.70;21.15;;;10.10;99.90;;;;;;5035939;28;20483;-74
2021/04/19 11:28:14;;;;;;;32.30;21.80;;;10.20;99.90;;;;;;5034553;28;20047;-72
2021/04/19 11:30:40;;;;;;;34.90;21.65;;;10.30;99.90;;;;;;5030027;28;20033;-71
2021/04/19 11:33:11;;;;;;;31.52;21.75;;;10.40;99.90;;;;;;5037231;28;20094;-74
2021/04/19 11:35:48;;;;;;;35.10;21.67;;;10.50;99.90;;;;;;5024952;28;20022;-74
2021/04/19 11:38:15;;;;;;;29.45;20.75;;;10.50;99.90;;;;;;5031873;28;20075;-74
2021/04/19 11:40:44;;;;;;;32.80;20.70;;;10.70;99.90;;;;;;5031685;28;20030;-72
2021/04/19 11:43:18;;;;;;;30.33;21.27;;;10.70;99.90;;;;;;5034892;28;20010;-72
2021/04/19 11:45:44;;;;;;;32.60;21.65;;;10.60;99.90;;;;;;5033243;28;20093;-74
2021/04/19 11:48:11;;;;;;;28.23;17.88;;;10.70;99.90;;;;;;5034726;28;20017;-73
2021/04/19 11:50:38;;;;;;;29.23;18.90;;;10.60;99.90;;;;;;5034879;28;20010;-72
2021/04/19 11:53:04;;;;;;;28.00;18.88;;;10.60;99.90;;;;;;5042197;28;20028;-72
2021/04/19 11:55:30;;;;;;;27.05;18.77;;;10.70;99.90;;;;;;5033222;28;20021;-72
2021/04/19 11:57:55;;;;;;;28.27;19.55;;;10.80;99.90;;;;;;5031783;28;20021;-73
2021/04/19 12:00:21;;;;;;;27.55;17.83;;;10.80;99.90;;;;;;5031252;28;20029;-76
2021/04/19 12:02:47;;;;;;;25.80;17.33;;;10.80;99.90;;;;;;5039773;28;20021;-73
2021/04/19 12:05:13;;;;;;;26.15;17.48;;;10.80;99.90;;;;;;5030103;28;20117;-72
2021/04/19 12:07:39;;;;;;;26.35;17.33;;;11.00;99.90;;;;;;5033661;28;20026;-74
2021/04/19 12:10:05;;;;;;;22.90;16.40;;;11.10;99.90;;;;;;5038637;28;20033;-72
2021/04/19 12:12:31;;;;;;;26.80;18.85;;;11.20;99.90;;;;;;5039890;28;20092;-72
2021/04/19 12:14:56;;;;;;;19.63;14.25;;;11.10;99.90;;;;;;5039967;28;20056;-73
2021/04/19 12:17:22;;;;;;;24.20;17.15;;;11.30;99.90;;;;;;5036719;28;20125;-72
2021/04/19 12:19:47;;;;;;;22.13;16.08;;;11.40;99.90;;;;;;5032245;28;20025;-73
2021/04/19 12:22:13;;;;;;;24.50;17.33;;;11.40;99.90;;;;;;5040391;28;20055;-72
2021/04/19 12:24:39;;;;;;;24.52;16.67;;;11.40;99.90;;;;;;5031940;28;20032;-73
2021/04/19 12:27:05;;;;;;;24.17;16.35;;;11.50;99.90;;;;;;5042664;28;20025;-72
2021/04/19 12:29:30;;;;;;;25.73;17.27;;;11.70;99.90;;;;;;5034944;28;20025;-72
2021/04/19 12:31:56;;;;;;;19.95;15.25;;;11.80;99.90;;;;;;5036970;28;20037;-72
2021/04/19 12:34:22;;;;;;;18.00;14.15;;;12.30;99.90;;;;;;5029781;28;20028;-73
2021/04/19 12:36:50;;;;;;;22.17;14.70;;;12.50;99.90;;;;;;5031887;28;20026;-72
2021/04/19 12:39:16;;;;;;;21.48;14.75;;;12.50;99.90;;;;;;5035624;28;20025;-73
2021/04/19 12:41:41;;;;;;;22.30;15.25;;;13.10;99.90;;;;;;5039386;28;20032;-72
2021/04/19 12:44:07;;;;;;;20.38;13.98;;;12.50;99.90;;;;;;5036724;28;20649;-73
2021/04/19 12:46:33;;;;;;;19.58;14.80;;;12.60;99.90;;;;;;5033645;28;20018;-73
2021/04/19 12:48:58;;;;;;;17.85;13.85;;;12.90;99.90;;;;;;5038313;28;20026;-73